createdAt,value
2022-07-26T00:01:59.041Z,101974.44
2022-07-26T00:04:28.405Z,101977.44
2022-07-26T00:06:56.327Z,101983.78
2022-07-26T00:09:24.266Z,101979.38
2022-07-26T00:11:52.237Z,101988.44
2022-07-26T00:14:20.207Z,101978.50
2022-07-26T00:16:48.268Z,101983.03
2022-07-26T00:19:16.270Z,101976.69
2022-07-26T00:21:45.709Z,101978.63
2022-07-26T00:24:13.628Z,101979.75
2022-07-26T00:26:41.708Z,101981.69
2022-07-26T00:29:09.837Z,101972.25
2022-07-26T00:31:37.950Z,101977.88
2022-07-26T00:34:05.919Z,101977.41
2022-07-26T00:36:34.233Z,101972.19
2022-07-26T00:39:05.694Z,101958.81
2022-07-26T00:41:33.776Z,101977.25
2022-07-26T00:44:01.790Z,101981.94
2022-07-26T00:46:29.823Z,101988.41
2022-07-26T00:48:57.884Z,101979.34
2022-07-26T00:51:25.949Z,101977.81
2022-07-26T00:53:54.079Z,101974.53
2022-07-26T00:56:23.408Z,101973.97
2022-07-26T00:58:51.342Z,101973.44
2022-07-26T01:01:19.316Z,101972.91
2022-07-26T01:03:47.235Z,101977.59
2022-07-26T01:06:15.158Z,101982.22
2022-07-26T01:08:43.128Z,101977.78
2022-07-26T01:11:11.117Z,101977.72
2022-07-26T01:13:46.688Z,101970.66
2022-07-26T01:16:14.598Z,101970.84
2022-07-26T01:18:42.651Z,101973.84
2022-07-26T01:21:13.680Z,101980.97
2022-07-26T01:23:43.662Z,101971.06
2022-07-26T01:26:11.703Z,101967.66
2022-07-26T01:28:41.082Z,101967.28
2022-07-26T01:31:09.321Z,101968.72
2022-07-26T01:33:37.350Z,101971.88
2022-07-26T01:36:05.655Z,101980.38
2022-07-26T01:38:33.620Z,101974.19
2022-07-26T01:41:03.003Z,101975.34
2022-07-26T01:43:30.990Z,101976.47
2022-07-26T01:45:59.145Z,101978.50
2022-07-26T01:48:27.148Z,101972.34
2022-07-26T01:50:55.178Z,101976.97
2022-07-26T01:53:23.164Z,101969.22
2022-07-26T01:55:51.115Z,101962.63
2022-07-26T01:58:20.508Z,101972.72
2022-07-26T02:00:48.587Z,101964.81
2022-07-26T02:03:16.590Z,101957.88
2022-07-26T02:05:44.537Z,101949.09
2022-07-26T02:08:12.541Z,101961.22
2022-07-26T02:10:58.053Z,101962.53
2022-07-26T02:13:27.894Z,101965.00
2022-07-26T02:15:55.898Z,101964.13
2022-07-26T02:18:23.906Z,101976.53
2022-07-26T02:20:51.833Z,101968.47
2022-07-26T02:23:19.816Z,101976.59
2022-07-26T02:25:47.791Z,101968.63
2022-07-26T02:28:15.859Z,101967.75
2022-07-26T02:30:45.265Z,101969.59
2022-07-26T02:33:13.335Z,101969.66
2022-07-26T02:35:41.286Z,101974.00
2022-07-26T02:38:10.697Z,101968.72
2022-07-26T02:40:38.911Z,101964.22
2022-07-26T02:43:07.492Z,101969.59
2022-07-26T02:45:35.489Z,101971.41
2022-07-26T02:48:05.080Z,101973.13
2022-07-26T02:50:33.317Z,101933.91
2022-07-26T02:53:01.280Z,101965.16
2022-07-26T02:55:29.208Z,101971.56
2022-07-26T02:57:57.304Z,101970.34
2022-07-26T03:00:26.163Z,101963.72
2022-07-26T03:02:54.169Z,101976.91
2022-07-26T03:05:23.557Z,101979.25
2022-07-26T03:07:51.610Z,101986.09
2022-07-26T03:10:19.575Z,101968.97
2022-07-26T03:12:47.539Z,101972.63
2022-07-26T03:15:15.569Z,101974.44
2022-07-26T03:17:43.529Z,101985.84
2022-07-26T03:20:13.169Z,101986.25
2022-07-26T03:22:42.631Z,101987.03
2022-07-26T03:25:10.621Z,101983.50
2022-07-26T03:27:38.623Z,101978.78
2022-07-26T03:30:07.465Z,101978.59
2022-07-26T03:32:35.449Z,101982.16
2022-07-26T03:35:03.446Z,101977.63
2022-07-26T03:37:45.524Z,101985.72
2022-07-26T03:40:16.292Z,101972.13
2022-07-26T03:42:44.501Z,101979.16
2022-07-26T03:45:13.455Z,101980.22
2022-07-26T03:47:41.373Z,101975.81
2022-07-26T03:50:10.980Z,101984.84
2022-07-26T03:52:38.982Z,101980.31
2022-07-26T03:55:27.566Z,101989.88
2022-07-26T03:57:56.032Z,101986.13
2022-07-26T04:00:23.962Z,101979.66
2022-07-26T04:02:51.931Z,101974.97
2022-07-26T04:05:23.376Z,101987.47
2022-07-26T04:07:53.084Z,101992.78
2022-07-26T04:10:21.818Z,101988.06
2022-07-26T04:12:49.834Z,101986.16
2022-07-26T04:15:21.019Z,101983.38
2022-07-26T04:17:49.293Z,101986.84
2022-07-26T04:20:17.254Z,101984.03
2022-07-26T04:22:45.239Z,101979.53
2022-07-26T04:25:13.265Z,101986.56
2022-07-26T04:27:41.162Z,101971.44
2022-07-26T04:30:14.804Z,101982.41
2022-07-26T04:32:45.865Z,101988.78
2022-07-26T04:35:15.081Z,101994.16
2022-07-26T04:37:43.619Z,101999.56
2022-07-26T04:40:28.478Z,101991.53
2022-07-26T04:42:57.513Z,101985.28
2022-07-26T04:45:26.016Z,101991.81
2022-07-26T04:47:55.709Z,102002.81
2022-07-26T04:50:23.912Z,102008.28
2022-07-26T04:52:52.312Z,102006.44
2022-07-26T04:55:20.638Z,102005.69
2022-07-26T04:57:51.467Z,102009.44
2022-07-26T05:00:24.318Z,102012.91
2022-07-26T05:02:57.294Z,102016.28
2022-07-26T05:05:30.777Z,102017.84
2022-07-26T05:08:03.209Z,102011.47
2022-07-26T05:10:33.834Z,102013.13
2022-07-26T05:13:02.731Z,102018.50
2022-07-26T05:15:35.363Z,102022.84
2022-07-26T05:18:07.084Z,102013.31
2022-07-26T05:20:37.595Z,102024.41
2022-07-26T05:23:05.758Z,102021.69
2022-07-26T05:25:36.451Z,102022.47
2022-07-26T05:28:04.495Z,102017.34
2022-07-26T05:30:32.801Z,102030.75
2022-07-26T05:33:00.868Z,102031.91
2022-07-26T05:35:28.924Z,102039.03
2022-07-26T05:38:00.554Z,102037.00
2022-07-26T05:40:28.586Z,102041.94
2022-07-26T05:42:56.570Z,102037.03
2022-07-26T05:45:24.503Z,102034.34
2022-07-26T05:47:52.491Z,102050.34
2022-07-26T05:50:20.663Z,102051.72
2022-07-26T05:52:48.838Z,102048.63
2022-07-26T05:55:18.553Z,102040.66
2022-07-26T05:57:49.575Z,102058.78
2022-07-26T06:00:21.024Z,102060.25
2022-07-26T06:02:49.202Z,102064.50
2022-07-26T06:05:17.611Z,102060.03
2022-07-26T06:07:48.114Z,102065.56
2022-07-26T06:10:16.167Z,102065.28
2022-07-26T06:12:45.786Z,102066.69
2022-07-26T06:15:16.087Z,102071.63
2022-07-26T06:17:44.221Z,102067.88
2022-07-26T06:20:13.214Z,102068.16
2022-07-26T06:22:41.365Z,102067.28
2022-07-26T06:25:12.599Z,102061.59
2022-07-26T06:27:41.170Z,102069.28
2022-07-26T06:30:11.933Z,102072.56
2022-07-26T06:32:41.264Z,102070.81
2022-07-26T06:35:09.413Z,102073.44
2022-07-26T06:37:38.089Z,102074.41
2022-07-26T06:40:10.669Z,102081.91
2022-07-26T06:42:44.831Z,102065.72
2022-07-26T06:45:14.204Z,102080.66
2022-07-26T06:47:42.255Z,102073.69
2022-07-26T06:50:10.879Z,102079.47
2022-07-26T06:52:41.980Z,102084.16
2022-07-26T06:55:15.963Z,102089.13
2022-07-26T06:57:48.847Z,102090.00
2022-07-26T07:00:19.870Z,102092.88
2022-07-26T07:02:47.812Z,102089.25
2022-07-26T07:05:16.165Z,102098.53
2022-07-26T07:07:44.144Z,102096.72
2022-07-26T07:10:12.696Z,102092.63
2022-07-26T07:12:41.821Z,102104.81
2022-07-26T07:15:10.515Z,102075.53
2022-07-26T07:17:40.049Z,102105.66
2022-07-26T07:20:08.441Z,102110.56
2022-07-26T07:22:36.351Z,102112.84
2022-07-26T07:25:06.204Z,102117.53
2022-07-26T07:27:34.421Z,102115.34
2022-07-26T07:30:02.465Z,102122.50
2022-07-26T07:32:32.231Z,102123.72
2022-07-26T07:35:01.789Z,102132.47
2022-07-26T07:37:52.368Z,102137.03
2022-07-26T07:40:18.001Z,102130.13
2022-07-26T07:42:45.968Z,102119.94
2022-07-26T07:45:13.905Z,102102.38
2022-07-26T07:47:41.881Z,102112.13
2022-07-26T07:50:14.541Z,102117.09
2022-07-26T07:52:42.682Z,102122.84
2022-07-26T07:55:40.040Z,102103.03
2022-07-26T07:58:01.536Z,102104.44
2022-07-26T08:00:33.432Z,102100.66
2022-07-26T08:03:01.602Z,102132.28
2022-07-26T08:05:30.974Z,102125.84
2022-07-26T08:07:58.928Z,102137.00
2022-07-26T08:10:26.976Z,102140.53
2022-07-26T08:12:54.931Z,102140.63
2022-07-26T08:15:23.529Z,102147.16
2022-07-26T08:17:54.564Z,102148.72
2022-07-26T08:20:22.942Z,102149.50
2022-07-26T08:22:54.471Z,102151.50
2022-07-26T08:25:22.640Z,102147.97
2022-07-26T08:28:03.233Z,102150.25
2022-07-26T08:30:31.809Z,102131.19
2022-07-26T08:32:59.826Z,102144.34
2022-07-26T08:35:29.536Z,102142.09
2022-07-26T08:37:59.041Z,102137.47
2022-07-26T08:40:27.097Z,102140.38
2022-07-26T08:42:56.089Z,102143.81
2022-07-26T08:45:24.672Z,102147.56
2022-07-26T08:48:16.220Z,102155.59
2022-07-26T08:50:41.273Z,102146.69
2022-07-26T08:53:12.034Z,102157.97
2022-07-26T08:56:05.510Z,102170.44
2022-07-26T08:58:28.361Z,102159.13
2022-07-26T09:01:05.497Z,102165.78
2022-07-26T09:03:33.615Z,102163.47
2022-07-26T09:06:12.855Z,102162.53
2022-07-26T09:08:42.201Z,102154.84
2022-07-26T09:11:34.248Z,102155.75
2022-07-26T09:14:02.872Z,102158.31
2022-07-26T09:16:32.548Z,102159.25
2022-07-26T09:19:16.853Z,102150.25
2022-07-26T09:21:44.836Z,102156.44
2022-07-26T09:24:14.366Z,102163.34
2022-07-26T09:26:42.444Z,102163.75
2022-07-26T09:29:11.625Z,102162.94
2022-07-26T09:31:40.209Z,102158.13
2022-07-26T09:34:08.851Z,102167.56
2022-07-26T09:36:51.108Z,102170.09
2022-07-26T09:39:33.588Z,102174.13
2022-07-26T09:42:27.394Z,102159.53
2022-07-26T09:44:56.576Z,102172.94
2022-07-26T09:47:24.771Z,102170.44
2022-07-26T09:50:11.667Z,102175.00
2022-07-26T09:52:39.877Z,102177.81
2022-07-26T09:55:10.963Z,102164.22
2022-07-26T09:57:39.071Z,102173.69
2022-07-26T10:00:08.405Z,102179.28
2022-07-26T10:02:36.434Z,102176.84
2022-07-26T10:05:04.546Z,102180.91
2022-07-26T10:07:32.697Z,102180.09
2022-07-26T10:10:02.418Z,102187.75
2022-07-26T10:12:33.217Z,102185.56
2022-07-26T10:15:01.189Z,102176.72
2022-07-26T10:17:47.026Z,102184.31
2022-07-26T10:20:42.152Z,102189.97
2022-07-26T10:23:37.435Z,102181.16
2022-07-26T10:26:06.276Z,102185.88
2022-07-26T10:28:36.661Z,102183.41
2022-07-26T10:31:30.831Z,102187.94
2022-07-26T10:34:00.255Z,102186.97
2022-07-26T10:36:33.693Z,102189.09
2022-07-26T10:39:09.842Z,102200.72
2022-07-26T10:41:39.714Z,102199.47
2022-07-26T10:44:20.365Z,102200.97
2022-07-26T10:47:18.868Z,102198.75
2022-07-26T10:49:57.225Z,102207.91
2022-07-26T10:52:27.264Z,102209.63
2022-07-26T10:55:17.354Z,102203.56
2022-07-26T10:57:49.470Z,102194.91
2022-07-26T11:00:21.126Z,102199.38
2022-07-26T11:02:59.493Z,102205.31
2022-07-26T11:05:31.192Z,102204.94
2022-07-26T11:08:11.722Z,102206.28
2022-07-26T11:10:40.364Z,102213.81
2022-07-26T11:13:10.668Z,102217.00
2022-07-26T11:15:41.088Z,102205.59
2022-07-26T11:18:14.210Z,102201.13
2022-07-26T11:20:42.618Z,102201.81
2022-07-26T11:23:37.914Z,102198.47
2022-07-26T11:26:13.690Z,102208.50
2022-07-26T11:28:49.016Z,102180.81
2022-07-26T11:31:21.255Z,102203.81
2022-07-26T11:33:51.381Z,102208.16
2022-07-26T11:36:20.357Z,102202.03
2022-07-26T11:38:49.835Z,102205.84
2022-07-26T11:41:32.630Z,102192.56
2022-07-26T11:44:12.733Z,102201.78
2022-07-26T11:46:47.945Z,102210.25
2022-07-26T11:49:17.094Z,102205.97
2022-07-26T11:52:06.519Z,102205.22
2022-07-26T11:54:35.529Z,102208.00
2022-07-26T11:57:04.382Z,102212.59
2022-07-26T11:59:33.134Z,102211.81
2022-07-26T12:02:03.328Z,102206.66
2022-07-26T12:05:12.062Z,102207.25
2022-07-26T12:07:40.140Z,102207.66
2022-07-26T12:10:09.133Z,102202.81
2022-07-26T12:12:37.124Z,102205.72
2022-07-26T12:15:07.066Z,102207.44
2022-07-26T12:17:36.652Z,102207.66
2022-07-26T12:20:14.647Z,102210.88
2022-07-26T12:22:42.747Z,102213.22
2022-07-26T12:25:11.030Z,102215.31
2022-07-26T12:27:46.458Z,102207.91
2022-07-26T12:30:17.709Z,102211.56
2022-07-26T12:32:48.565Z,102208.84
2022-07-26T12:35:17.533Z,102208.00
2022-07-26T12:37:51.365Z,102195.81
2022-07-26T12:40:20.855Z,102194.66
2022-07-26T12:43:00.784Z,102202.81
2022-07-26T12:45:30.093Z,102203.94
2022-07-26T12:48:00.313Z,102197.34
2022-07-26T12:50:29.013Z,102200.84
2022-07-26T12:53:00.950Z,102204.97
2022-07-26T12:55:28.945Z,102169.75
2022-07-26T12:57:57.169Z,102203.47
2022-07-26T13:00:25.668Z,102200.91
2022-07-26T13:03:04.594Z,102199.88
2022-07-26T13:05:35.026Z,102205.47
2022-07-26T13:08:03.063Z,102199.19
2022-07-26T13:10:33.580Z,102197.25
2022-07-26T13:13:02.883Z,102204.44
2022-07-26T13:15:36.248Z,102191.19
2022-07-26T13:18:07.237Z,102206.69
2022-07-26T13:20:38.075Z,102191.38
2022-07-26T13:23:06.076Z,102198.44
2022-07-26T13:25:38.462Z,102208.97
2022-07-26T13:28:08.532Z,102212.81
2022-07-26T13:30:37.726Z,102210.53
2022-07-26T13:33:05.850Z,102210.50
2022-07-26T13:35:33.806Z,102216.50
2022-07-26T13:38:03.757Z,102206.22
2022-07-26T13:40:32.242Z,102202.94
2022-07-26T13:43:00.366Z,102201.53
2022-07-26T13:45:29.370Z,102209.56
2022-07-26T13:47:58.788Z,102198.34
2022-07-26T13:50:27.538Z,102193.19
2022-07-26T13:52:55.703Z,102192.66
2022-07-26T13:55:25.484Z,102204.53
2022-07-26T13:57:56.975Z,102194.94
2022-07-26T14:00:25.413Z,102200.13
2022-07-26T14:02:53.474Z,102199.88
2022-07-26T14:05:21.703Z,102193.50
2022-07-26T14:07:49.702Z,102150.94
2022-07-26T14:10:18.211Z,102202.31
2022-07-26T14:12:47.942Z,102197.72
2022-07-26T14:15:21.703Z,102201.63
2022-07-26T14:17:51.144Z,102195.56
2022-07-26T14:20:19.137Z,102194.34
2022-07-26T14:22:48.054Z,102190.03
2022-07-26T14:25:16.045Z,102189.06
2022-07-26T14:27:44.028Z,102179.78
2022-07-26T14:30:14.683Z,102200.94
2022-07-26T14:32:42.602Z,102206.88
2022-07-26T14:35:11.071Z,102210.41
2022-07-26T14:37:42.607Z,102207.59
2022-07-26T14:40:15.305Z,102206.22
2022-07-26T14:42:43.365Z,102204.25
2022-07-26T14:45:13.118Z,102206.28
2022-07-26T14:47:41.161Z,102210.56
2022-07-26T14:50:09.789Z,102210.72
2022-07-26T14:52:38.671Z,102226.56
2022-07-26T14:55:07.629Z,102215.78
2022-07-26T14:57:39.029Z,102217.97
2022-07-26T15:00:09.089Z,102216.97
2022-07-26T15:02:39.554Z,102220.81
2022-07-26T15:05:08.014Z,102215.47
2022-07-26T15:07:36.027Z,102216.34
2022-07-26T15:10:04.128Z,102225.22
2022-07-26T15:12:32.166Z,102214.28
2022-07-26T15:15:00.169Z,102217.28
2022-07-26T15:17:28.123Z,102206.94
2022-07-26T15:19:57.475Z,102219.91
2022-07-26T15:22:25.476Z,102209.41
2022-07-26T15:24:53.492Z,102202.22
2022-07-26T15:27:21.670Z,102203.97
2022-07-26T15:29:50.755Z,102199.22
2022-07-26T15:32:18.778Z,102197.66
2022-07-26T15:34:46.946Z,102195.38
2022-07-26T15:37:16.309Z,102184.75
2022-07-26T15:39:44.455Z,102183.16
2022-07-26T15:42:12.368Z,102188.13
2022-07-26T15:44:43.238Z,102191.41
2022-07-26T15:47:12.062Z,102188.78
2022-07-26T15:49:40.686Z,102185.84
2022-07-26T15:52:09.271Z,102180.78
2022-07-26T15:54:39.038Z,102179.81
2022-07-26T15:57:06.996Z,102162.81
2022-07-26T15:59:34.975Z,102174.88
2022-07-26T16:02:06.218Z,102174.81
2022-07-26T16:04:34.619Z,102182.69
2022-07-26T16:07:02.613Z,102171.09
2022-07-26T16:09:30.858Z,102181.16
2022-07-26T16:12:04.122Z,102178.06
2022-07-26T16:14:34.089Z,102173.72
2022-07-26T16:17:02.023Z,102161.34
2022-07-26T16:19:30.208Z,102179.50
2022-07-26T16:21:58.163Z,102169.00
2022-07-26T16:24:26.685Z,102166.53
2022-07-26T16:26:54.663Z,102175.66
2022-07-26T16:29:24.106Z,102172.03
2022-07-26T16:31:54.529Z,102175.13
2022-07-26T16:34:22.549Z,102168.16
2022-07-26T16:36:50.983Z,102174.56
2022-07-26T16:39:19.030Z,102171.47
2022-07-26T16:41:47.222Z,102173.63
2022-07-26T16:44:15.193Z,102171.03
2022-07-26T16:46:44.859Z,102167.66
2022-07-26T16:49:13.195Z,102171.41
2022-07-26T16:51:41.509Z,102155.72
2022-07-26T16:54:09.530Z,102174.91
2022-07-26T16:56:37.514Z,102159.66
2022-07-26T16:59:10.651Z,102159.69
2022-07-26T17:01:38.933Z,102162.63
2022-07-26T17:04:08.406Z,102149.75
2022-07-26T17:06:36.678Z,102165.75
2022-07-26T17:09:04.782Z,102154.34
2022-07-26T17:11:34.498Z,102156.34
2022-07-26T17:14:02.473Z,102152.50
2022-07-26T17:16:30.802Z,102150.94
2022-07-26T17:18:58.799Z,102157.06
2022-07-26T17:21:32.370Z,102150.91
2022-07-26T17:24:05.178Z,102148.06
2022-07-26T17:26:33.596Z,102148.28
2022-07-26T17:29:09.492Z,102150.47
2022-07-26T17:31:37.713Z,102146.84
2022-07-26T17:34:05.725Z,102149.97
2022-07-26T17:36:35.854Z,102145.94
2022-07-26T17:39:05.265Z,102142.75
2022-07-26T17:41:33.717Z,102143.19
2022-07-26T17:44:02.953Z,102134.78
2022-07-26T17:46:32.593Z,102140.16
2022-07-26T17:49:00.835Z,102144.63
2022-07-26T17:51:30.250Z,102136.66
2022-07-26T17:53:59.606Z,102139.56
2022-07-26T17:56:27.932Z,102128.63
2022-07-26T17:58:55.904Z,102134.50
2022-07-26T18:01:26.587Z,102125.09
2022-07-26T18:03:54.660Z,102130.94
2022-07-26T18:06:22.711Z,102124.78
2022-07-26T18:08:50.634Z,102128.69
2022-07-26T18:11:19.995Z,102132.50
2022-07-26T18:13:47.929Z,102132.38
2022-07-26T18:16:15.962Z,102128.19
2022-07-26T18:18:43.981Z,102124.94
2022-07-26T18:21:12.053Z,102118.97
2022-07-26T18:23:54.619Z,102121.22
2022-07-26T18:26:29.291Z,102129.44
2022-07-26T18:28:57.336Z,102116.41
2022-07-26T18:31:25.359Z,102077.66
2022-07-26T18:33:53.400Z,102117.03
2022-07-26T18:36:21.321Z,102125.53
2022-07-26T18:38:49.290Z,102129.06
2022-07-26T18:41:17.739Z,102103.06
2022-07-26T18:43:47.045Z,102123.28
2022-07-26T18:46:15.127Z,102128.41
2022-07-26T18:48:43.325Z,102128.41
2022-07-26T18:51:11.562Z,102125.25
2022-07-26T18:53:39.469Z,102123.66
2022-07-26T18:56:09.113Z,102127.81
2022-07-26T18:58:37.432Z,102119.81
2022-07-26T19:01:08.262Z,102117.53
2022-07-26T19:03:36.231Z,102119.41
2022-07-26T19:06:04.371Z,102125.06
2022-07-26T19:08:32.413Z,102111.53
2022-07-26T19:11:00.362Z,102134.59
2022-07-26T19:13:28.354Z,102122.94
2022-07-26T19:15:56.486Z,102122.50
2022-07-26T19:18:27.568Z,102119.50
2022-07-26T19:20:55.663Z,102122.84
2022-07-26T19:23:23.790Z,102127.81
2022-07-26T19:25:51.745Z,102131.03
2022-07-26T19:28:19.670Z,102123.44
2022-07-26T19:30:47.706Z,102130.66
2022-07-26T19:33:16.875Z,102129.63
2022-07-26T19:35:46.248Z,102131.19
2022-07-26T19:38:14.501Z,102127.16
2022-07-26T19:40:44.196Z,102127.56
2022-07-26T19:43:12.206Z,102134.44
2022-07-26T19:45:40.184Z,102134.75
2022-07-26T19:48:08.364Z,102132.44
2022-07-26T19:50:36.274Z,102140.97
2022-07-26T19:53:05.703Z,102139.63
2022-07-26T19:55:33.685Z,102134.81
2022-07-26T19:58:03.506Z,102139.44
2022-07-26T20:00:33.489Z,102143.66
2022-07-26T20:03:01.667Z,102140.75
2022-07-26T20:05:29.715Z,102138.84
2022-07-26T20:07:57.843Z,102150.22
2022-07-26T20:10:31.822Z,102156.19
2022-07-26T20:13:00.343Z,102151.25
2022-07-26T20:15:28.320Z,102153.34
2022-07-26T20:17:56.254Z,102150.09
2022-07-26T20:20:24.270Z,102144.00
2022-07-26T20:22:52.207Z,102156.81
2022-07-26T20:25:21.826Z,102157.16
2022-07-26T20:27:51.541Z,102156.56
2022-07-26T20:30:19.548Z,102157.72
2022-07-26T20:32:47.571Z,102164.31
2022-07-26T20:35:15.540Z,102161.28
2022-07-26T20:37:44.059Z,102166.03
2022-07-26T20:40:12.911Z,102171.78
2022-07-26T20:42:44.399Z,102126.09
2022-07-26T20:45:14.397Z,102173.25
2022-07-26T20:47:43.060Z,102174.25
2022-07-26T20:50:11.549Z,102176.22
2022-07-26T20:52:39.501Z,102180.16
2022-07-26T20:55:08.501Z,102189.28
2022-07-26T20:57:37.501Z,102193.13
2022-07-26T21:00:06.522Z,102188.09
2022-07-26T21:02:35.986Z,102187.28
2022-07-26T21:05:04.014Z,102184.59
2022-07-26T21:07:57.322Z,102183.25
2022-07-26T21:10:20.333Z,102184.38
2022-07-26T21:12:49.781Z,102175.69
2022-07-26T21:15:17.730Z,102181.34
2022-07-26T21:17:47.156Z,102186.97
2022-07-26T21:20:15.183Z,102182.03
2022-07-26T21:22:43.133Z,102179.69
2022-07-26T21:25:11.440Z,102180.09
2022-07-26T21:27:39.395Z,102183.03
2022-07-26T21:30:11.246Z,102173.47
2022-07-26T21:32:39.161Z,102182.84
2022-07-26T21:35:09.225Z,102179.53
2022-07-26T21:37:37.145Z,102182.38
2022-07-26T21:40:05.832Z,102188.72
2022-07-26T21:42:35.141Z,102188.72
2022-07-26T21:45:03.077Z,102177.19
2022-07-26T21:47:31.013Z,102181.53
2022-07-26T21:50:00.264Z,102186.72
2022-07-26T21:52:29.653Z,102189.34
2022-07-26T21:54:57.659Z,102184.03
2022-07-26T21:57:25.627Z,102180.66
2022-07-26T21:59:53.575Z,102188.78
2022-07-26T22:02:21.875Z,102187.06
2022-07-26T22:04:49.960Z,102183.59
2022-07-26T22:07:17.996Z,102185.66
2022-07-26T22:09:47.259Z,102190.34
2022-07-26T22:12:15.248Z,102182.38
2022-07-26T22:14:43.132Z,102191.50
2022-07-26T22:17:11.097Z,102179.16
2022-07-26T22:19:39.152Z,102179.06
2022-07-26T22:22:07.073Z,102188.00
2022-07-26T22:24:35.051Z,102189.03
2022-07-26T22:27:04.528Z,102187.56
2022-07-26T22:29:37.911Z,102190.63
2022-07-26T22:32:08.318Z,102192.44
2022-07-26T22:34:36.409Z,102189.06
2022-07-26T22:37:04.357Z,102191.59
2022-07-26T22:39:32.289Z,102188.97
2022-07-26T22:42:14.817Z,102194.44
2022-07-26T22:44:44.970Z,102196.34
2022-07-26T22:47:12.919Z,102194.69
2022-07-26T22:49:40.920Z,102183.19
2022-07-26T22:52:08.914Z,102182.41
2022-07-26T22:54:36.825Z,102178.00
2022-07-26T22:57:04.898Z,102187.19
2022-07-26T22:59:32.865Z,102190.00
2022-07-26T23:02:02.263Z,102184.63
2022-07-26T23:04:30.250Z,102187.31
2022-07-26T23:06:59.063Z,102182.97
2022-07-26T23:09:27.933Z,102175.91
2022-07-26T23:11:55.883Z,102187.66
2022-07-26T23:14:23.849Z,102129.97
2022-07-26T23:16:51.861Z,102167.25
2022-07-26T23:19:21.200Z,102187.94
2022-07-26T23:21:49.110Z,102182.09
2022-07-26T23:24:17.050Z,102177.97
2022-07-26T23:26:45.020Z,102182.78
2022-07-26T23:29:13.311Z,102175.97
2022-07-26T23:31:42.218Z,102170.84
2022-07-26T23:34:10.213Z,102172.09
2022-07-26T23:36:39.527Z,102176.78
2022-07-26T23:39:07.496Z,102177.94
2022-07-26T23:41:35.411Z,102176.25
2022-07-26T23:44:03.343Z,102178.31
2022-07-26T23:46:31.294Z,102178.38
2022-07-26T23:49:00.150Z,102174.06
2022-07-26T23:51:28.169Z,102174.25
2022-07-26T23:53:57.497Z,102169.13
2022-07-26T23:56:25.402Z,102173.91
2022-07-26T23:58:53.574Z,102175.13
